createdAt,value
2023-02-18T00:01:34.236Z,6.20
2023-02-18T00:04:01.547Z,9.73
2023-02-18T00:06:34.942Z,6.68
2023-02-18T00:09:04.313Z,5.03
2023-02-18T00:11:34.827Z,7.53
2023-02-18T00:14:06.275Z,8.13
2023-02-18T00:16:33.376Z,6.45
2023-02-18T00:19:06.480Z,7.07
2023-02-18T00:21:35.849Z,7.47
2023-02-18T00:24:05.094Z,5.18
2023-02-18T00:26:32.878Z,7.55
2023-02-18T00:29:00.006Z,6.57
2023-02-18T00:31:31.335Z,8.30
2023-02-18T00:33:59.879Z,7.03
2023-02-18T00:36:28.137Z,9.05
2023-02-18T00:39:01.817Z,7.45
2023-02-18T00:41:30.122Z,5.90
2023-02-18T00:43:57.351Z,5.13
2023-02-18T00:46:25.159Z,5.82
2023-02-18T00:48:52.225Z,8.65
2023-02-18T00:51:19.695Z,6.88
2023-02-18T00:53:46.650Z,5.60
2023-02-18T00:56:13.982Z,7.05
2023-02-18T00:58:40.981Z,10.05
2023-02-18T01:01:10.200Z,5.68
2023-02-18T01:03:40.064Z,7.35
2023-02-18T01:06:08.773Z,6.93
2023-02-18T01:08:37.850Z,5.78
2023-02-18T01:11:06.139Z,5.95
2023-02-18T01:13:33.811Z,6.70
2023-02-18T01:16:01.128Z,8.55
2023-02-18T01:18:28.541Z,6.32
2023-02-18T01:20:55.563Z,10.57
2023-02-18T01:23:24.195Z,7.70
2023-02-18T01:25:51.630Z,9.45
2023-02-18T01:28:19.184Z,6.38
2023-02-18T01:30:46.250Z,9.48
2023-02-18T01:33:13.284Z,6.38
2023-02-18T01:35:41.168Z,6.78
2023-02-18T01:38:09.116Z,5.95
2023-02-18T01:40:37.116Z,6.72
2023-02-18T01:43:04.277Z,8.30
2023-02-18T01:45:34.213Z,7.85
2023-02-18T01:48:14.154Z,5.60
2023-02-18T01:50:46.992Z,7.97
2023-02-18T01:53:20.860Z,5.65
2023-02-18T01:55:49.591Z,5.60
2023-02-18T01:58:18.052Z,7.43
2023-02-18T02:00:45.076Z,10.00
2023-02-18T02:03:12.062Z,6.03
2023-02-18T02:05:39.044Z,6.22
2023-02-18T02:08:07.146Z,9.90
2023-02-18T02:11:00.045Z,5.70
2023-02-18T02:13:37.801Z,5.88
2023-02-18T02:16:42.896Z,5.20
2023-02-18T02:19:40.670Z,8.55
2023-02-18T02:22:41.404Z,5.57
2023-02-18T02:25:13.155Z,6.68
2023-02-18T02:28:25.355Z,8.43
2023-02-18T02:31:01.260Z,8.63
2023-02-18T02:33:48.165Z,10.13
2023-02-18T02:36:24.696Z,6.13
2023-02-18T02:38:56.967Z,8.43
2023-02-18T02:41:51.177Z,11.68
2023-02-18T02:44:18.216Z,5.28
2023-02-18T02:46:48.676Z,7.38
2023-02-18T02:49:46.203Z,10.88
2023-02-18T02:52:22.098Z,7.25
2023-02-18T02:54:49.137Z,5.95
2023-02-18T02:57:19.083Z,7.00
2023-02-18T02:59:52.867Z,8.73
2023-02-18T03:03:14.616Z,7.28
2023-02-18T03:05:50.336Z,6.57
2023-02-18T03:08:39.428Z,9.27
2023-02-18T03:11:11.786Z,6.85
2023-02-18T03:14:14.245Z,5.93
2023-02-18T03:16:56.209Z,5.32
2023-02-18T03:19:39.866Z,7.85
2023-02-18T03:22:26.860Z,6.30
2023-02-18T03:24:56.983Z,7.15
2023-02-18T03:27:32.519Z,5.60
2023-02-18T03:30:08.315Z,6.15
2023-02-18T03:32:36.375Z,7.07
2023-02-18T03:35:14.397Z,5.82
2023-02-18T03:38:06.063Z,5.90
2023-02-18T03:40:33.162Z,9.27
2023-02-18T03:43:00.566Z,8.18
2023-02-18T03:45:28.358Z,5.45
2023-02-18T03:47:55.498Z,7.53
2023-02-18T03:50:22.613Z,6.90
2023-02-18T03:52:50.861Z,4.43
2023-02-18T03:55:18.075Z,4.70
2023-02-18T03:57:45.052Z,5.72
2023-02-18T04:00:12.920Z,6.78
2023-02-18T04:02:40.088Z,5.13
2023-02-18T04:05:07.506Z,7.18
2023-02-18T04:07:34.861Z,5.50
2023-02-18T04:10:02.032Z,7.63
2023-02-18T04:12:29.129Z,5.70
2023-02-18T04:14:56.189Z,9.13
2023-02-18T04:17:23.251Z,6.65
2023-02-18T04:19:50.279Z,4.80
2023-02-18T04:22:17.196Z,6.65
2023-02-18T04:24:44.159Z,5.68
2023-02-18T04:27:11.257Z,6.85
2023-02-18T04:29:38.857Z,4.65
2023-02-18T04:32:06.155Z,7.70
2023-02-18T04:34:33.224Z,7.10
2023-02-18T04:37:00.234Z,6.38
2023-02-18T04:39:27.207Z,11.82
2023-02-18T04:41:54.277Z,8.77
2023-02-18T04:44:21.312Z,9.68
2023-02-18T04:46:48.684Z,5.55
2023-02-18T04:49:15.659Z,9.77
2023-02-18T04:51:42.747Z,4.85
2023-02-18T04:54:09.709Z,5.18
2023-02-18T04:56:36.722Z,6.95
2023-02-18T04:59:03.686Z,6.20
2023-02-18T05:01:30.692Z,7.53
2023-02-18T05:03:57.772Z,6.18
2023-02-18T05:06:24.780Z,4.25
2023-02-18T05:08:51.849Z,5.60
2023-02-18T05:11:18.933Z,5.70
2023-02-18T05:13:45.977Z,4.90
2023-02-18T05:16:14.023Z,7.43
2023-02-18T05:18:41.471Z,8.43
2023-02-18T05:21:08.686Z,5.80
2023-02-18T05:23:35.678Z,10.23
2023-02-18T05:26:02.819Z,8.68
2023-02-18T05:28:29.963Z,9.73
2023-02-18T05:30:57.188Z,14.15
2023-02-18T05:33:24.387Z,7.10
2023-02-18T05:35:51.352Z,7.63
2023-02-18T05:38:18.419Z,6.00
2023-02-18T05:40:45.913Z,9.57
2023-02-18T05:43:12.950Z,8.20
2023-02-18T05:45:40.364Z,5.45
2023-02-18T05:48:07.564Z,8.10
2023-02-18T05:50:34.887Z,9.68
2023-02-18T05:53:02.093Z,5.85
2023-02-18T05:55:29.224Z,6.53
2023-02-18T05:57:56.295Z,6.88
2023-02-18T06:00:23.748Z,13.13
2023-02-18T06:02:50.979Z,7.05
2023-02-18T06:05:18.237Z,7.05
2023-02-18T06:07:45.375Z,5.13
2023-02-18T06:10:12.430Z,4.93
2023-02-18T06:12:39.534Z,7.50
2023-02-18T06:15:07.498Z,7.45
2023-02-18T06:17:34.463Z,31.40
2023-02-18T06:20:01.526Z,5.95
2023-02-18T06:23:14.780Z,12.38
2023-02-18T06:25:42.463Z,5.53
2023-02-18T06:28:09.684Z,6.72
2023-02-18T06:30:36.764Z,14.50
2023-02-18T06:33:06.579Z,8.10
2023-02-18T06:35:33.993Z,6.07
2023-02-18T06:38:01.020Z,6.63
2023-02-18T06:40:28.181Z,9.55
2023-02-18T06:42:55.225Z,4.65
2023-02-18T06:45:22.579Z,6.65
2023-02-18T06:47:50.137Z,6.47
2023-02-18T06:50:17.388Z,7.50
2023-02-18T06:52:44.357Z,6.53
2023-02-18T06:55:11.779Z,6.22
2023-02-18T06:57:38.833Z,5.18
2023-02-18T07:00:06.954Z,7.07
2023-02-18T07:02:33.979Z,6.50
2023-02-18T07:05:00.965Z,7.55
2023-02-18T07:07:28.229Z,7.00
2023-02-18T07:09:55.204Z,5.20
2023-02-18T07:12:22.422Z,7.55
2023-02-18T07:14:49.499Z,7.68
2023-02-18T07:17:19.850Z,8.30
2023-02-18T07:19:46.859Z,8.63
2023-02-18T07:22:15.422Z,7.00
2023-02-18T07:24:42.723Z,13.48
2023-02-18T07:27:09.923Z,9.52
2023-02-18T07:29:36.915Z,6.25
2023-02-18T07:32:04.317Z,7.00
2023-02-18T07:34:31.300Z,4.88
2023-02-18T07:36:58.294Z,7.65
2023-02-18T07:39:25.451Z,7.88
2023-02-18T07:41:52.428Z,7.72
2023-02-18T07:44:19.391Z,6.78
2023-02-18T07:46:48.379Z,10.52
2023-02-18T07:49:15.827Z,8.50
2023-02-18T07:51:42.807Z,12.35
2023-02-18T07:54:09.780Z,7.88
2023-02-18T07:56:36.741Z,8.05
2023-02-18T07:59:06.394Z,6.50
2023-02-18T08:01:33.870Z,7.75
2023-02-18T08:04:01.023Z,11.25
2023-02-18T08:06:40.467Z,7.05
2023-02-18T08:09:08.145Z,10.98
2023-02-18T08:11:35.646Z,7.25
2023-02-18T08:14:02.644Z,8.23
2023-02-18T08:16:29.832Z,9.07
2023-02-18T08:18:57.296Z,7.07
2023-02-18T08:21:25.756Z,10.45
2023-02-18T08:23:53.937Z,12.70
2023-02-18T08:26:21.999Z,18.35
2023-02-18T08:28:50.139Z,10.05
2023-02-18T08:31:20.518Z,14.93
2023-02-18T08:33:48.130Z,7.47
2023-02-18T08:36:15.479Z,13.43
2023-02-18T08:38:42.557Z,8.77
2023-02-18T08:41:10.149Z,10.90
2023-02-18T08:43:37.681Z,8.13
2023-02-18T08:46:05.404Z,9.63
2023-02-18T08:48:33.056Z,7.75
2023-02-18T08:51:00.122Z,13.88
2023-02-18T08:53:27.131Z,12.50
2023-02-18T08:55:54.116Z,7.35
2023-02-18T08:58:21.124Z,15.65
2023-02-18T09:00:48.119Z,9.98
2023-02-18T09:03:16.179Z,12.25
2023-02-18T09:05:43.369Z,8.98
2023-02-18T09:08:11.585Z,9.50
2023-02-18T09:10:39.543Z,12.38
2023-02-18T09:13:06.605Z,17.85
2023-02-18T09:15:33.600Z,9.77
2023-02-18T09:18:03.730Z,9.85
2023-02-18T09:20:30.791Z,7.53
2023-02-18T09:22:57.901Z,12.18
2023-02-18T09:25:25.464Z,9.95
2023-02-18T09:27:52.511Z,8.00
2023-02-18T09:30:19.770Z,9.63
2023-02-18T09:32:46.674Z,9.10
2023-02-18T09:35:13.658Z,9.27
2023-02-18T09:37:41.289Z,5.45
2023-02-18T09:40:09.057Z,6.90
2023-02-18T09:42:36.139Z,13.73
2023-02-18T09:45:07.507Z,6.28
2023-02-18T09:47:46.275Z,7.82
2023-02-18T09:50:27.993Z,13.35
2023-02-18T09:52:56.806Z,6.13
2023-02-18T09:55:30.642Z,8.35
2023-02-18T09:58:06.230Z,6.75
2023-02-18T10:00:41.499Z,5.95
2023-02-18T10:03:21.415Z,9.68
2023-02-18T10:06:04.669Z,6.32
2023-02-18T10:08:44.108Z,9.45
2023-02-18T10:11:23.830Z,5.43
2023-02-18T10:13:53.456Z,10.50
2023-02-18T10:16:22.364Z,7.57
2023-02-18T10:18:54.907Z,6.00
2023-02-18T10:21:26.771Z,14.82
2023-02-18T10:24:29.215Z,7.88
2023-02-18T10:26:57.258Z,8.60
2023-02-18T10:29:25.563Z,7.57
2023-02-18T10:31:59.827Z,6.38
2023-02-18T10:35:00.566Z,8.63
2023-02-18T10:37:49.372Z,7.32
2023-02-18T10:40:28.643Z,9.80
2023-02-18T10:43:07.684Z,10.10
2023-02-18T10:45:59.822Z,11.63
2023-02-18T10:48:47.970Z,9.52
2023-02-18T10:51:24.806Z,7.93
2023-02-18T10:53:53.662Z,6.07
2023-02-18T10:56:40.673Z,7.88
2023-02-18T10:59:33.754Z,7.25
2023-02-18T11:02:13.760Z,8.80
2023-02-18T11:04:44.666Z,7.47
2023-02-18T11:07:23.752Z,6.18
2023-02-18T11:09:56.463Z,6.32
2023-02-18T11:12:29.331Z,11.95
2023-02-18T11:15:10.842Z,10.50
2023-02-18T11:18:01.026Z,8.23
2023-02-18T11:20:49.469Z,8.93
2023-02-18T11:23:29.144Z,8.27
2023-02-18T11:26:05.864Z,8.40
2023-02-18T11:29:21.989Z,8.25
2023-02-18T11:31:54.632Z,9.50
2023-02-18T11:34:28.656Z,11.20
2023-02-18T11:37:19.470Z,9.00
2023-02-18T11:39:51.344Z,9.07
2023-02-18T11:42:22.480Z,7.53
2023-02-18T11:45:00.974Z,8.32
2023-02-18T11:47:35.739Z,7.22
2023-02-18T11:50:08.929Z,7.55
2023-02-18T11:52:42.931Z,7.18
2023-02-18T11:55:25.097Z,8.10
2023-02-18T11:58:03.123Z,7.05
2023-02-18T12:00:40.660Z,7.03
2023-02-18T12:03:48.549Z,7.05
2023-02-18T12:06:28.744Z,10.13
2023-02-18T12:09:06.179Z,9.73
2023-02-18T12:12:00.217Z,12.25
2023-02-18T12:14:27.533Z,15.45
2023-02-18T12:17:23.291Z,13.85
2023-02-18T12:20:29.759Z,11.77
2023-02-18T12:23:31.770Z,8.32
2023-02-18T12:26:25.167Z,10.70
2023-02-18T12:29:08.192Z,15.95
2023-02-18T12:32:18.424Z,10.85
2023-02-18T12:35:31.221Z,13.35
2023-02-18T12:38:30.393Z,14.27
2023-02-18T12:41:31.443Z,12.10
2023-02-18T12:44:18.696Z,7.05
2023-02-18T12:47:31.298Z,7.50
2023-02-18T12:50:25.357Z,22.08
2023-02-18T12:53:29.768Z,9.40
2023-02-18T12:56:25.551Z,11.68
2023-02-18T12:59:40.805Z,6.60
2023-02-18T13:02:45.207Z,7.47
2023-02-18T13:05:32.086Z,11.88
2023-02-18T13:08:31.564Z,11.45
2023-02-18T13:11:19.495Z,13.75
2023-02-18T13:14:11.891Z,491.60
2023-02-18T13:16:44.688Z,9.25
2023-02-18T13:19:24.876Z,21.48
2023-02-18T13:21:56.981Z,547.20
2023-02-18T13:24:49.434Z,13.70
2023-02-18T13:27:37.016Z,13.07
2023-02-18T13:30:50.532Z,15.20
2023-02-18T13:33:42.995Z,251.18
2023-02-18T13:36:55.371Z,362.70
2023-02-18T13:39:25.200Z,258.45
2023-02-18T13:42:11.306Z,548.83
2023-02-18T13:45:23.683Z,525.38
2023-02-18T13:47:51.548Z,533.47
2023-02-18T13:50:27.653Z,550.30
2023-02-18T13:53:20.933Z,534.78
2023-02-18T13:56:29.610Z,539.33
2023-02-18T13:59:08.710Z,529.78
2023-02-18T14:01:52.230Z,564.10
2023-02-18T14:04:44.404Z,461.45
2023-02-18T14:07:23.774Z,537.72
2023-02-18T14:09:53.009Z,537.60
2023-02-18T14:12:42.776Z,10.20
2023-02-18T14:15:18.586Z,521.83
2023-02-18T14:18:13.567Z,547.92
2023-02-18T14:20:40.509Z,542.08
2023-02-18T14:23:19.617Z,541.75
2023-02-18T14:26:12.485Z,537.63
2023-02-18T14:28:51.189Z,533.25
2023-02-18T14:31:40.856Z,546.78
2023-02-18T14:34:17.792Z,533.97
2023-02-18T14:37:26.364Z,540.92
2023-02-18T14:40:26.754Z,514.47
2023-02-18T14:43:26.081Z,505.83
2023-02-18T14:46:01.792Z,504.75
2023-02-18T14:48:43.468Z,501.98
2023-02-18T14:51:16.110Z,14.68
2023-02-18T14:53:45.322Z,507.83
2023-02-18T14:56:16.893Z,265.38
2023-02-18T14:58:55.720Z,103.28
2023-02-18T15:01:32.729Z,501.38
2023-02-18T15:04:02.657Z,523.88
2023-02-18T15:06:36.683Z,518.13
2023-02-18T15:09:15.181Z,510.38
2023-02-18T15:11:54.452Z,529.60
2023-02-18T15:14:32.060Z,524.40
2023-02-18T15:17:00.369Z,491.73
2023-02-18T15:19:44.267Z,532.90
2023-02-18T15:22:34.377Z,527.22
2023-02-18T15:25:02.804Z,513.22
2023-02-18T15:27:33.435Z,530.30
2023-02-18T15:30:27.956Z,509.63
2023-02-18T15:32:58.615Z,496.95
2023-02-18T15:35:33.497Z,489.42
2023-02-18T15:38:01.505Z,479.70
2023-02-18T15:40:35.503Z,512.80
2023-02-18T15:43:06.323Z,480.77
2023-02-18T15:45:41.982Z,479.55
2023-02-18T15:48:43.165Z,455.30
2023-02-18T15:51:19.650Z,443.65
2023-02-18T15:53:52.473Z,441.98
2023-02-18T15:56:29.924Z,422.02
2023-02-18T15:59:27.448Z,424.20
2023-02-18T16:02:01.573Z,427.45
2023-02-18T16:04:37.297Z,427.63
2023-02-18T16:07:24.177Z,434.83
2023-02-18T16:10:17.182Z,434.23
2023-02-18T16:12:50.620Z,426.15
2023-02-18T16:15:31.341Z,425.27
2023-02-18T16:18:01.370Z,436.27
2023-02-18T16:20:36.219Z,424.17
2023-02-18T16:23:14.872Z,426.50
2023-02-18T16:25:46.143Z,413.83
2023-02-18T16:28:33.043Z,422.42
2023-02-18T16:31:00.110Z,427.63
2023-02-18T16:33:27.320Z,432.35
2023-02-18T16:35:57.718Z,419.95
2023-02-18T16:38:25.606Z,436.92
2023-02-18T16:40:55.124Z,423.48
2023-02-18T16:43:26.935Z,448.63
2023-02-18T16:45:58.385Z,441.45
2023-02-18T16:48:40.300Z,429.35
2023-02-18T16:51:24.546Z,409.67
2023-02-18T16:53:52.299Z,411.40
2023-02-18T16:56:32.351Z,417.13
2023-02-18T16:59:00.010Z,411.63
2023-02-18T17:01:41.379Z,415.02
2023-02-18T17:04:16.303Z,410.70
2023-02-18T17:06:46.466Z,408.27
2023-02-18T17:09:23.402Z,409.75
2023-02-18T17:11:52.913Z,412.77
2023-02-18T17:14:21.767Z,415.63
2023-02-18T17:16:52.108Z,409.75
2023-02-18T17:19:19.425Z,413.73
2023-02-18T17:21:48.724Z,424.73
2023-02-18T17:24:18.633Z,413.13
2023-02-18T17:26:45.964Z,419.90
2023-02-18T17:29:14.019Z,417.20
2023-02-18T17:31:47.406Z,418.17
2023-02-18T17:34:31.045Z,420.35
2023-02-18T17:36:58.221Z,412.40
2023-02-18T17:39:25.462Z,443.40
2023-02-18T17:41:56.262Z,447.52
2023-02-18T17:44:26.279Z,433.92
2023-02-18T17:46:55.086Z,446.30
2023-02-18T17:49:22.702Z,425.58
2023-02-18T17:51:52.290Z,420.77
2023-02-18T17:54:22.783Z,413.67
2023-02-18T17:56:50.261Z,414.45
2023-02-18T17:59:17.970Z,427.75
2023-02-18T18:01:45.109Z,426.98
2023-02-18T18:04:19.698Z,415.70
2023-02-18T18:06:49.692Z,445.45
2023-02-18T18:09:17.013Z,416.40
2023-02-18T18:11:44.691Z,412.85
2023-02-18T18:14:15.147Z,412.35
2023-02-18T18:16:42.618Z,442.00
2023-02-18T18:19:10.315Z,420.98
2023-02-18T18:21:38.081Z,424.45
2023-02-18T18:24:07.327Z,423.00
2023-02-18T18:26:37.897Z,421.73
2023-02-18T18:29:08.455Z,419.45
2023-02-18T18:31:37.577Z,421.77
2023-02-18T18:34:04.732Z,409.90
2023-02-18T18:36:31.809Z,419.58
2023-02-18T18:38:59.247Z,426.35
2023-02-18T18:41:26.427Z,417.23
2023-02-18T18:43:53.571Z,417.20
2023-02-18T18:46:21.269Z,413.13
2023-02-18T18:48:49.089Z,414.85
2023-02-18T18:51:27.913Z,417.17
2023-02-18T18:53:55.867Z,416.00
2023-02-18T18:56:23.382Z,412.80
2023-02-18T18:58:50.877Z,413.00
2023-02-18T19:01:27.803Z,414.10
2023-02-18T19:03:54.985Z,447.65
2023-02-18T19:06:23.294Z,410.42
2023-02-18T19:08:51.201Z,419.33
2023-02-18T19:11:18.591Z,419.45
2023-02-18T19:13:46.422Z,426.42
2023-02-18T19:16:35.227Z,456.25
2023-02-18T19:19:02.987Z,412.73
2023-02-18T19:21:34.362Z,412.30
2023-02-18T19:24:02.188Z,422.63
2023-02-18T19:26:29.265Z,429.00
2023-02-18T19:28:57.049Z,414.05
2023-02-18T19:31:24.595Z,409.33
2023-02-18T19:33:52.255Z,409.33
2023-02-18T19:36:19.373Z,404.98
2023-02-18T19:38:46.978Z,401.48
2023-02-18T19:41:17.109Z,401.98
2023-02-18T19:43:46.651Z,409.02
2023-02-18T19:46:18.662Z,419.10
2023-02-18T19:48:52.562Z,413.80
2023-02-18T19:51:21.492Z,410.58
2023-02-18T19:53:48.758Z,423.67
2023-02-18T19:56:15.935Z,417.13
2023-02-18T19:58:43.213Z,410.00
2023-02-18T20:01:18.366Z,414.17
2023-02-18T20:03:47.450Z,417.10
2023-02-18T20:06:20.181Z,403.33
2023-02-18T20:08:47.785Z,415.98
2023-02-18T20:11:15.011Z,401.65
2023-02-18T20:13:42.278Z,409.63
2023-02-18T20:16:10.871Z,417.55
2023-02-18T20:18:37.967Z,417.45
2023-02-18T20:21:05.579Z,424.98
2023-02-18T20:23:32.584Z,406.63
2023-02-18T20:26:02.708Z,431.75
2023-02-18T20:28:29.685Z,423.90
2023-02-18T20:31:12.100Z,416.38
2023-02-18T20:33:39.828Z,410.60
2023-02-18T20:36:08.627Z,401.05
2023-02-18T20:38:39.372Z,402.95
2023-02-18T20:41:14.536Z,405.02
2023-02-18T20:43:42.147Z,404.42
2023-02-18T20:46:13.881Z,415.67
2023-02-18T20:48:40.960Z,410.80
2023-02-18T20:51:18.702Z,419.98
2023-02-18T20:53:48.216Z,405.73
2023-02-18T20:56:15.645Z,397.90
2023-02-18T20:58:42.879Z,407.85
2023-02-18T21:01:14.380Z,408.60
2023-02-18T21:03:42.374Z,399.38
2023-02-18T21:06:14.001Z,417.95
2023-02-18T21:08:42.316Z,405.40
2023-02-18T21:11:14.366Z,426.40
2023-02-18T21:13:42.487Z,407.83
2023-02-18T21:16:10.375Z,408.02
2023-02-18T21:18:38.469Z,396.70
2023-02-18T21:21:08.606Z,399.35
2023-02-18T21:23:36.943Z,401.60
2023-02-18T21:26:08.116Z,406.05
2023-02-18T21:28:35.873Z,409.60
2023-02-18T21:31:03.899Z,430.25
2023-02-18T21:33:33.861Z,418.63
2023-02-18T21:36:03.354Z,421.55
2023-02-18T21:38:30.431Z,424.30
2023-02-18T21:40:57.549Z,437.05
2023-02-18T21:43:24.714Z,433.42
2023-02-18T21:45:51.803Z,420.40
2023-02-18T21:48:37.451Z,421.52
2023-02-18T21:51:04.700Z,423.00
2023-02-18T21:53:32.072Z,424.95
2023-02-18T21:56:12.628Z,432.42
2023-02-18T21:58:41.852Z,420.05
2023-02-18T22:01:09.226Z,410.42
2023-02-18T22:03:36.650Z,415.60
2023-02-18T22:06:03.883Z,433.35
2023-02-18T22:08:31.177Z,416.75
2023-02-18T22:10:58.423Z,429.65
2023-02-18T22:13:25.669Z,421.55
2023-02-18T22:15:57.377Z,423.80
2023-02-18T22:18:24.595Z,411.85
2023-02-18T22:20:51.620Z,417.23
2023-02-18T22:23:18.737Z,407.30
2023-02-18T22:25:47.968Z,404.08
2023-02-18T22:28:15.497Z,410.98
2023-02-18T22:30:42.517Z,413.10
2023-02-18T22:33:09.551Z,406.27
2023-02-18T22:35:36.624Z,407.40
2023-02-18T22:38:03.839Z,399.33
2023-02-18T22:40:30.915Z,406.30
2023-02-18T22:42:57.952Z,411.88
2023-02-18T22:45:24.951Z,404.48
2023-02-18T22:47:51.967Z,413.73
2023-02-18T22:50:19.163Z,418.00
2023-02-18T22:52:46.254Z,416.20
2023-02-18T22:55:13.245Z,411.92
2023-02-18T22:57:40.218Z,400.92
2023-02-18T23:00:10.825Z,410.98
2023-02-18T23:02:37.829Z,414.63
2023-02-18T23:05:04.940Z,418.60
2023-02-18T23:07:31.914Z,425.52
2023-02-18T23:09:59.016Z,411.88
2023-02-18T23:12:26.003Z,406.50
2023-02-18T23:14:53.089Z,409.38
2023-02-18T23:17:20.181Z,403.15
2023-02-18T23:19:52.829Z,408.52
2023-02-18T23:22:30.555Z,410.02
2023-02-18T23:24:57.744Z,417.23
2023-02-18T23:27:26.039Z,405.63
2023-02-18T23:29:53.883Z,418.75
2023-02-18T23:32:20.996Z,401.08
2023-02-18T23:34:51.117Z,418.02
2023-02-18T23:37:18.467Z,404.58
2023-02-18T23:39:47.401Z,398.80
2023-02-18T23:42:15.359Z,398.40
2023-02-18T23:44:42.386Z,402.10
2023-02-18T23:47:09.398Z,396.35
2023-02-18T23:49:36.410Z,406.65
2023-02-18T23:52:03.805Z,406.80
2023-02-18T23:54:30.818Z,406.65
2023-02-18T23:56:58.386Z,408.08
2023-02-18T23:59:25.453Z,424.42
